sensor_id;sensor_type;location;lat;lon;timestamp;P1;durP1;ratioP1;P2;durP2;ratioP2
61570;SDS011;47463;49.884;10.010;2024-01-11T00:00:00;39.4;;;17.5;;
61570;SDS011;47463;49.884;10.010;2024-01-11T00:05:00;44.9;;;18.5;;
61570;SDS011;47463;49.884;10.010;2024-01-11T00:10:00;45.3;;;18.5;;
61570;SDS011;47463;49.884;10.010;2024-01-11T00:15:00;45.3;;;18.5;;
61570;SDS011;47463;49.884;10.010;2024-01-11T00:20:00;47.3;;;18;;
61570;SDS011;47463;49.884;10.010;2024-01-11T00:25:00;43.1;;;17.3;;
61570;SDS011;47463;49.884;10.010;2024-01-11T00:30:00;37.4;;;16.9;;
61570;SDS011;47463;49.884;10.010;2024-01-11T00:35:00;42.8;;;17;;
61570;SDS011;47463;49.884;10.010;2024-01-11T00:40:00;41.5;;;16.7;;
61570;SDS011;47463;49.884;10.010;2024-01-11T00:45:00;41.5;;;16.7;;
61570;SDS011;47463;49.884;10.010;2024-01-11T00:50:00;45.7;;;17.8;;
61570;SDS011;47463;49.884;10.010;2024-01-11T00:55:00;40.2;;;16.8;;
61570;SDS011;47463;49.884;10.010;2024-01-11T01:00:00;44.4;;;16.6;;
61570;SDS011;47463;49.884;10.010;2024-01-11T01:05:00;45.6;;;17.4;;
61570;SDS011;47463;49.884;10.010;2024-01-11T01:10:00;45.5;;;17.6;;
61570;SDS011;47463;49.884;10.010;2024-01-11T01:15:00;45.5;;;17.6;;
61570;SDS011;47463;49.884;10.010;2024-01-11T01:20:00;46.2;;;17.3;;
61570;SDS011;47463;49.884;10.010;2024-01-11T01:25:00;45.8;;;18.5;;
61570;SDS011;47463;49.884;10.010;2024-01-11T01:30:00;48.6;;;18.8;;
61570;SDS011;47463;49.884;10.010;2024-01-11T01:35:00;49.9;;;17.9;;
61570;SDS011;47463;49.884;10.010;2024-01-11T01:40:00;47.6;;;19.4;;
61570;SDS011;47463;49.884;10.010;2024-01-11T01:45:00;47.6;;;19.4;;
61570;SDS011;47463;49.884;10.010;2024-01-11T01:50:00;43.6;;;17.3;;
61570;SDS011;47463;49.884;10.010;2024-01-11T01:55:00;43.4;;;18.7;;
61570;SDS011;47463;49.884;10.010;2024-01-11T02:00:00;55;;;20.5;;
61570;SDS011;47463;49.884;10.010;2024-01-11T02:05:00;50.3;;;19.9;;
61570;SDS011;47463;49.884;10.010;2024-01-11T02:10:00;44.8;;;18.3;;
61570;SDS011;47463;49.884;10.010;2024-01-11T02:15:00;44.8;;;18.3;;
61570;SDS011;47463;49.884;10.010;2024-01-11T02:20:00;51.4;;;19.8;;
61570;SDS011;47463;49.884;10.010;2024-01-11T02:25:00;48.3;;;19;;
61570;SDS011;47463;49.884;10.010;2024-01-11T02:30:00;49.7;;;17.9;;
61570;SDS011;47463;49.884;10.010;2024-01-11T02:35:00;49.4;;;20.1;;
61570;SDS011;47463;49.884;10.010;2024-01-11T02:40:00;51.2;;;17.7;;
61570;SDS011;47463;49.884;10.010;2024-01-11T02:45:00;51.2;;;17.7;;
61570;SDS011;47463;49.884;10.010;2024-01-11T02:50:00;49.2;;;19;;
61570;SDS011;47463;49.884;10.010;2024-01-11T02:55:00;49.7;;;20;;
61570;SDS011;47463;49.884;10.010;2024-01-11T03:00:00;51.9;;;20.1;;
61570;SDS011;47463;49.884;10.010;2024-01-11T03:05:00;52.8;;;20.4;;
61570;SDS011;47463;49.884;10.010;2024-01-11T03:10:00;43.8;;;17.9;;
61570;SDS011;47463;49.884;10.010;2024-01-11T03:15:00;43.8;;;17.9;;
61570;SDS011;47463;49.884;10.010;2024-01-11T03:20:00;57.1;;;19.5;;
61570;SDS011;47463;49.884;10.010;2024-01-11T03:25:00;51.9;;;18.9;;
61570;SDS011;47463;49.884;10.010;2024-01-11T03:30:00;49;;;18.1;;
61570;SDS011;47463;49.884;10.010;2024-01-11T03:35:00;51.4;;;19.6;;
61570;SDS011;47463;49.884;10.010;2024-01-11T03:40:00;52.5;;;20.1;;
61570;SDS011;47463;49.884;10.010;2024-01-11T03:45:00;52.5;;;20.1;;
61570;SDS011;47463;49.884;10.010;2024-01-11T03:50:00;52.4;;;20.1;;
61570;SDS011;47463;49.884;10.010;2024-01-11T03:55:00;55;;;19.6;;
61570;SDS011;47463;49.884;10.010;2024-01-11T04:00:00;53.8;;;19.6;;
61570;SDS011;47463;49.884;10.010;2024-01-11T04:05:00;50.4;;;18.8;;
61570;SDS011;47463;49.884;10.010;2024-01-11T04:10:00;49;;;19.4;;
61570;SDS011;47463;49.884;10.010;2024-01-11T04:15:00;49;;;19.4;;
61570;SDS011;47463;49.884;10.010;2024-01-11T04:20:00;51.5;;;20.4;;
61570;SDS011;47463;49.884;10.010;2024-01-11T04:25:00;49.8;;;18.4;;
61570;SDS011;47463;49.884;10.010;2024-01-11T04:30:00;57.2;;;21.1;;
61570;SDS011;47463;49.884;10.010;2024-01-11T04:35:00;54;;;20.3;;
61570;SDS011;47463;49.884;10.010;2024-01-11T04:40:00;50.5;;;20.2;;
61570;SDS011;47463;49.884;10.010;2024-01-11T04:45:00;50.5;;;20.2;;
61570;SDS011;47463;49.884;10.010;2024-01-11T04:50:00;52.4;;;20.2;;
61570;SDS011;47463;49.884;10.010;2024-01-11T04:55:00;51.5;;;19.4;;
61570;SDS011;47463;49.884;10.010;2024-01-11T05:00:00;52.7;;;20.3;;
61570;SDS011;47463;49.884;10.010;2024-01-11T05:05:00;53.1;;;18.7;;
61570;SDS011;47463;49.884;10.010;2024-01-11T05:10:00;51.1;;;19.2;;
61570;SDS011;47463;49.884;10.010;2024-01-11T05:15:00;51.1;;;19.2;;
61570;SDS011;47463;49.884;10.010;2024-01-11T05:20:00;53.2;;;21.1;;
61570;SDS011;47463;49.884;10.010;2024-01-11T05:25:00;49;;;18.9;;
61570;SDS011;47463;49.884;10.010;2024-01-11T05:30:00;52.8;;;19.5;;
61570;SDS011;47463;49.884;10.010;2024-01-11T05:35:00;50.8;;;19.3;;
61570;SDS011;47463;49.884;10.010;2024-01-11T05:40:00;53.8;;;20.3;;
61570;SDS011;47463;49.884;10.010;2024-01-11T05:45:00;53.8;;;20.3;;
61570;SDS011;47463;49.884;10.010;2024-01-11T05:50:00;55.8;;;19.2;;
61570;SDS011;47463;49.884;10.010;2024-01-11T05:55:00;49.2;;;19.7;;
61570;SDS011;47463;49.884;10.010;2024-01-11T06:00:00;48;;;20;;
61570;SDS011;47463;49.884;10.010;2024-01-11T06:05:00;47.8;;;18.5;;
61570;SDS011;47463;49.884;10.010;2024-01-11T06:10:00;48.6;;;19.2;;
61570;SDS011;47463;49.884;10.010;2024-01-11T06:15:00;48.6;;;19.2;;
61570;SDS011;47463;49.884;10.010;2024-01-11T06:20:00;61.2;;;20.6;;
61570;SDS011;47463;49.884;10.010;2024-01-11T06:25:00;54.9;;;19.1;;
61570;SDS011;47463;49.884;10.010;2024-01-11T06:30:00;51.2;;;19.8;;
61570;SDS011;47463;49.884;10.010;2024-01-11T06:35:00;52.3;;;20.4;;
61570;SDS011;47463;49.884;10.010;2024-01-11T06:40:00;56;;;21.4;;
61570;SDS011;47463;49.884;10.010;2024-01-11T06:45:00;56;;;21.4;;
61570;SDS011;47463;49.884;10.010;2024-01-11T06:50:00;58.4;;;21.7;;
61570;SDS011;47463;49.884;10.010;2024-01-11T06:55:00;60.7;;;22.1;;
61570;SDS011;47463;49.884;10.010;2024-01-11T07:00:00;60.4;;;20.8;;
61570;SDS011;47463;49.884;10.010;2024-01-11T07:05:00;59.9;;;21.3;;
61570;SDS011;47463;49.884;10.010;2024-01-11T07:10:00;63.9;;;23.4;;
61570;SDS011;47463;49.884;10.010;2024-01-11T07:15:00;63.9;;;23.4;;
61570;SDS011;47463;49.884;10.010;2024-01-11T07:20:00;75;;;25;;
61570;SDS011;47463;49.884;10.010;2024-01-11T07:25:00;64.4;;;23.2;;
61570;SDS011;47463;49.884;10.010;2024-01-11T07:30:00;70.5;;;24.5;;
61570;SDS011;47463;49.884;10.010;2024-01-11T07:35:00;67.3;;;23.8;;
61570;SDS011;47463;49.884;10.010;2024-01-11T07:40:00;83;;;25.5;;
61570;SDS011;47463;49.884;10.010;2024-01-11T07:45:00;83;;;25.5;;
61570;SDS011;47463;49.884;10.010;2024-01-11T07:50:00;74.6;;;24.1;;
61570;SDS011;47463;49.884;10.010;2024-01-11T07:55:00;66.8;;;23.3;;
61570;SDS011;47463;49.884;10.010;2024-01-11T08:00:00;65.2;;;22.3;;
61570;SDS011;47463;49.884;10.010;2024-01-11T08:05:00;64.1;;;23.5;;
61570;SDS011;47463;49.884;10.010;2024-01-11T08:10:00;66.5;;;21.6;;
61570;SDS011;47463;49.884;10.010;2024-01-11T08:15:00;66.5;;;21.6;;
61570;SDS011;47463;49.884;10.010;2024-01-11T08:20:00;74.8;;;26.8;;
61570;SDS011;47463;49.884;10.010;2024-01-11T08:25:00;78.2;;;28.2;;
61570;SDS011;47463;49.884;10.010;2024-01-11T08:30:00;105.5;;;37.6;;
61570;SDS011;47463;49.884;10.010;2024-01-11T08:35:00;62.4;;;26.2;;
61570;SDS011;47463;49.884;10.010;2024-01-11T08:40:00;93.6;;;38.4;;
61570;SDS011;47463;49.884;10.010;2024-01-11T08:45:00;93.6;;;38.4;;
61570;SDS011;47463;49.884;10.010;2024-01-11T08:50:00;42.3;;;21.8;;
61570;SDS011;47463;49.884;10.010;2024-01-11T08:55:00;34.6;;;20.5;;
61570;SDS011;47463;49.884;10.010;2024-01-11T09:00:00;34.1;;;20.7;;
61570;SDS011;47463;49.884;10.010;2024-01-11T09:05:00;37.6;;;22.8;;
61570;SDS011;47463;49.884;10.010;2024-01-11T09:10:00;42.8;;;21.3;;
61570;SDS011;47463;49.884;10.010;2024-01-11T09:15:00;42.8;;;21.3;;
61570;SDS011;47463;49.884;10.010;2024-01-11T09:20:00;37.8;;;20.4;;
61570;SDS011;47463;49.884;10.010;2024-01-11T09:25:00;32.3;;;17.2;;
61570;SDS011;47463;49.884;10.010;2024-01-11T09:30:00;38.2;;;19.2;;
61570;SDS011;47463;49.884;10.010;2024-01-11T09:35:00;37.2;;;21.5;;
61570;SDS011;47463;49.884;10.010;2024-01-11T09:40:00;37.1;;;21.4;;
61570;SDS011;47463;49.884;10.010;2024-01-11T09:45:00;37.1;;;21.4;;
61570;SDS011;47463;49.884;10.010;2024-01-11T09:50:00;37;;;19.9;;
61570;SDS011;47463;49.884;10.010;2024-01-11T09:55:00;34;;;18;;
61570;SDS011;47463;49.884;10.010;2024-01-11T10:00:00;32.3;;;16.5;;
61570;SDS011;47463;49.884;10.010;2024-01-11T10:05:00;35.8;;;16.3;;
61570;SDS011;47463;49.884;10.010;2024-01-11T10:10:00;33.3;;;15.7;;
61570;SDS011;47463;49.884;10.010;2024-01-11T10:15:04;33.3;;;15.7;;
61570;SDS011;47463;49.884;10.010;2024-01-11T10:20:00;35.6;;;15.6;;
61570;SDS011;47463;49.884;10.010;2024-01-11T10:25:11;31.7;;;15.1;;
61570;SDS011;47463;49.884;10.010;2024-01-11T10:30:00;28.5;;;14.1;;
61570;SDS011;47463;49.884;10.010;2024-01-11T10:35:00;32.6;;;13.8;;
61570;SDS011;47463;49.884;10.010;2024-01-11T10:40:02;29.2;;;13.7;;
61570;SDS011;47463;49.884;10.010;2024-01-11T10:45:00;29.2;;;13.7;;
61570;SDS011;47463;49.884;10.010;2024-01-11T10:50:00;31.2;;;13.6;;
61570;SDS011;47463;49.884;10.010;2024-01-11T10:55:00;27.4;;;13.2;;
61570;SDS011;47463;49.884;10.010;2024-01-11T11:00:00;27.2;;;12.8;;
61570;SDS011;47463;49.884;10.010;2024-01-11T11:05:00;27.8;;;12;;
61570;SDS011;47463;49.884;10.010;2024-01-11T11:10:00;27.2;;;13.5;;
61570;SDS011;47463;49.884;10.010;2024-01-11T11:15:00;27.2;;;13.5;;
61570;SDS011;47463;49.884;10.010;2024-01-11T11:20:00;27.2;;;12.8;;
61570;SDS011;47463;49.884;10.010;2024-01-11T11:25:03;30;;;13.4;;
61570;SDS011;47463;49.884;10.010;2024-01-11T11:30:00;26.7;;;13.2;;
61570;SDS011;47463;49.884;10.010;2024-01-11T11:35:00;26.4;;;12.6;;
61570;SDS011;47463;49.884;10.010;2024-01-11T11:40:00;29;;;12.9;;
61570;SDS011;47463;49.884;10.010;2024-01-11T11:45:00;29;;;12.9;;
61570;SDS011;47463;49.884;10.010;2024-01-11T11:50:03;27.6;;;12.7;;
61570;SDS011;47463;49.884;10.010;2024-01-11T11:55:00;31.3;;;13.8;;
61570;SDS011;47463;49.884;10.010;2024-01-11T12:00:00;28.6;;;13.2;;
61570;SDS011;47463;49.884;10.010;2024-01-11T12:05:00;30.1;;;13.4;;
61570;SDS011;47463;49.884;10.010;2024-01-11T12:10:00;28.4;;;12.3;;
61570;SDS011;47463;49.884;10.010;2024-01-11T12:15:00;28.4;;;12.3;;
61570;SDS011;47463;49.884;10.010;2024-01-11T12:20:00;33.6;;;14.7;;
61570;SDS011;47463;49.884;10.010;2024-01-11T12:25:00;33.7;;;13.6;;
61570;SDS011;47463;49.884;10.010;2024-01-11T12:30:00;35.6;;;15;;
61570;SDS011;47463;49.884;10.010;2024-01-11T12:35:00;27.4;;;13;;
61570;SDS011;47463;49.884;10.010;2024-01-11T12:40:00;32.1;;;13.7;;
61570;SDS011;47463;49.884;10.010;2024-01-11T12:45:00;32.1;;;13.7;;
61570;SDS011;47463;49.884;10.010;2024-01-11T12:50:00;34.3;;;14;;
61570;SDS011;47463;49.884;10.010;2024-01-11T12:55:00;31;;;12.4;;
61570;SDS011;47463;49.884;10.010;2024-01-11T13:00:08;27.5;;;11.6;;
61570;SDS011;47463;49.884;10.010;2024-01-11T13:05:00;51.1;;;13.5;;
61570;SDS011;47463;49.884;10.010;2024-01-11T13:10:00;32.1;;;12.8;;
61570;SDS011;47463;49.884;10.010;2024-01-11T13:15:00;32.1;;;12.8;;
61570;SDS011;47463;49.884;10.010;2024-01-11T13:20:00;27.7;;;12.1;;
61570;SDS011;47463;49.884;10.010;2024-01-11T13:25:00;32;;;13.7;;
61570;SDS011;47463;49.884;10.010;2024-01-11T13:30:00;34;;;13.5;;
61570;SDS011;47463;49.884;10.010;2024-01-11T13:35:00;28.9;;;12.2;;
61570;SDS011;47463;49.884;10.010;2024-01-11T13:40:00;32.7;;;13.2;;
61570;SDS011;47463;49.884;10.010;2024-01-11T13:45:00;32.7;;;13.2;;
61570;SDS011;47463;49.884;10.010;2024-01-11T13:50:00;29.8;;;13.3;;
61570;SDS011;47463;49.884;10.010;2024-01-11T13:55:00;31.9;;;13.8;;
61570;SDS011;47463;49.884;10.010;2024-01-11T14:00:00;33.6;;;13.8;;
61570;SDS011;47463;49.884;10.010;2024-01-11T14:05:00;32.4;;;13.1;;
61570;SDS011;47463;49.884;10.010;2024-01-11T14:10:00;31.7;;;13.9;;
61570;SDS011;47463;49.884;10.010;2024-01-11T14:15:00;31.7;;;13.9;;
61570;SDS011;47463;49.884;10.010;2024-01-11T14:20:00;32.6;;;14.7;;
61570;SDS011;47463;49.884;10.010;2024-01-11T14:25:00;31.7;;;14;;
61570;SDS011;47463;49.884;10.010;2024-01-11T14:30:00;33.1;;;13.7;;
61570;SDS011;47463;49.884;10.010;2024-01-11T14:35:00;36.2;;;13.8;;
61570;SDS011;47463;49.884;10.010;2024-01-11T14:40:00;36.5;;;14.6;;
61570;SDS011;47463;49.884;10.010;2024-01-11T14:45:00;36.5;;;14.6;;
61570;SDS011;47463;49.884;10.010;2024-01-11T14:50:00;34.3;;;15;;
61570;SDS011;47463;49.884;10.010;2024-01-11T14:55:00;33.8;;;14;;
61570;SDS011;47463;49.884;10.010;2024-01-11T15:00:00;37.2;;;16;;
61570;SDS011;47463;49.884;10.010;2024-01-11T15:05:00;33.7;;;15;;
61570;SDS011;47463;49.884;10.010;2024-01-11T15:10:00;36.2;;;14.6;;
61570;SDS011;47463;49.884;10.010;2024-01-11T15:15:00;36.2;;;14.6;;
61570;SDS011;47463;49.884;10.010;2024-01-11T15:20:00;40.5;;;15.8;;
61570;SDS011;47463;49.884;10.010;2024-01-11T15:25:00;41.3;;;15.9;;
61570;SDS011;47463;49.884;10.010;2024-01-11T15:30:00;40.9;;;16.1;;
61570;SDS011;47463;49.884;10.010;2024-01-11T15:35:00;53;;;18.4;;
61570;SDS011;47463;49.884;10.010;2024-01-11T15:40:00;34.1;;;13.8;;
61570;SDS011;47463;49.884;10.010;2024-01-11T15:45:00;34.1;;;13.8;;
61570;SDS011;47463;49.884;10.010;2024-01-11T15:50:00;35;;;13.7;;
61570;SDS011;47463;49.884;10.010;2024-01-11T15:55:00;35.1;;;12.7;;
61570;SDS011;47463;49.884;10.010;2024-01-11T16:00:00;31.4;;;12.5;;
61570;SDS011;47463;49.884;10.010;2024-01-11T16:05:00;34.1;;;13.2;;
61570;SDS011;47463;49.884;10.010;2024-01-11T16:10:00;33;;;13.1;;
61570;SDS011;47463;49.884;10.010;2024-01-11T16:15:00;33;;;13.1;;
61570;SDS011;47463;49.884;10.010;2024-01-11T16:20:00;48.7;;;17;;
61570;SDS011;47463;49.884;10.010;2024-01-11T16:25:00;37.3;;;14.3;;
61570;SDS011;47463;49.884;10.010;2024-01-11T16:30:00;34.7;;;12.9;;
61570;SDS011;47463;49.884;10.010;2024-01-11T16:35:00;49;;;14.6;;
61570;SDS011;47463;49.884;10.010;2024-01-11T16:40:00;41.5;;;16.5;;
61570;SDS011;47463;49.884;10.010;2024-01-11T16:45:00;41.5;;;16.5;;
61570;SDS011;47463;49.884;10.010;2024-01-11T16:50:00;71.1;;;22.7;;
61570;SDS011;47463;49.884;10.010;2024-01-11T16:55:00;48.1;;;20.1;;
61570;SDS011;47463;49.884;10.010;2024-01-11T17:00:00;47.8;;;20;;
61570;SDS011;47463;49.884;10.010;2024-01-11T17:05:00;46;;;16.8;;
61570;SDS011;47463;49.884;10.010;2024-01-11T17:10:00;57.3;;;18.5;;
61570;SDS011;47463;49.884;10.010;2024-01-11T17:15:00;57.3;;;18.5;;
61570;SDS011;47463;49.884;10.010;2024-01-11T17:20:00;50.2;;;19;;
61570;SDS011;47463;49.884;10.010;2024-01-11T17:25:00;60.1;;;20.7;;
61570;SDS011;47463;49.884;10.010;2024-01-11T17:30:00;57.7;;;20.2;;
61570;SDS011;47463;49.884;10.010;2024-01-11T17:35:00;60.4;;;22.1;;
61570;SDS011;47463;49.884;10.010;2024-01-11T17:40:00;57.2;;;21.5;;
61570;SDS011;47463;49.884;10.010;2024-01-11T17:45:00;57.2;;;21.5;;
61570;SDS011;47463;49.884;10.010;2024-01-11T17:50:00;57.6;;;20.6;;
61570;SDS011;47463;49.884;10.010;2024-01-11T17:55:00;54;;;20.2;;
61570;SDS011;47463;49.884;10.010;2024-01-11T18:00:00;59.7;;;22.1;;
61570;SDS011;47463;49.884;10.010;2024-01-11T18:05:00;57.6;;;20.4;;
61570;SDS011;47463;49.884;10.010;2024-01-11T18:10:00;62.6;;;22.2;;
61570;SDS011;47463;49.884;10.010;2024-01-11T18:15:00;62.6;;;22.2;;
61570;SDS011;47463;49.884;10.010;2024-01-11T18:20:00;62;;;20.5;;
61570;SDS011;47463;49.884;10.010;2024-01-11T18:25:00;65.5;;;22.7;;
61570;SDS011;47463;49.884;10.010;2024-01-11T18:30:00;59;;;22;;
61570;SDS011;47463;49.884;10.010;2024-01-11T18:35:00;62.3;;;21.4;;
61570;SDS011;47463;49.884;10.010;2024-01-11T18:40:00;58.2;;;21.1;;
61570;SDS011;47463;49.884;10.010;2024-01-11T18:45:00;58.2;;;21.1;;
61570;SDS011;47463;49.884;10.010;2024-01-11T18:50:00;58.9;;;21.7;;
61570;SDS011;47463;49.884;10.010;2024-01-11T18:55:00;58.5;;;21;;
61570;SDS011;47463;49.884;10.010;2024-01-11T19:00:00;60;;;21.1;;
61570;SDS011;47463;49.884;10.010;2024-01-11T19:05:00;59.2;;;22.2;;
61570;SDS011;47463;49.884;10.010;2024-01-11T19:10:00;62;;;21.3;;
61570;SDS011;47463;49.884;10.010;2024-01-11T19:15:00;62;;;21.3;;
61570;SDS011;47463;49.884;10.010;2024-01-11T19:20:00;60.5;;;20.7;;
61570;SDS011;47463;49.884;10.010;2024-01-11T19:25:00;56.1;;;19;;
61570;SDS011;47463;49.884;10.010;2024-01-11T19:30:00;47.1;;;18.4;;
61570;SDS011;47463;49.884;10.010;2024-01-11T19:35:00;54;;;19.1;;
61570;SDS011;47463;49.884;10.010;2024-01-11T19:40:00;47.9;;;19.2;;
61570;SDS011;47463;49.884;10.010;2024-01-11T19:45:00;47.9;;;19.2;;
61570;SDS011;47463;49.884;10.010;2024-01-11T19:50:00;60.8;;;18.9;;
61570;SDS011;47463;49.884;10.010;2024-01-11T19:55:00;56.2;;;17.6;;
61570;SDS011;47463;49.884;10.010;2024-01-11T20:00:00;50.2;;;18.4;;
61570;SDS011;47463;49.884;10.010;2024-01-11T20:05:00;50.7;;;18.8;;
61570;SDS011;47463;49.884;10.010;2024-01-11T20:10:00;53.5;;;19.4;;
61570;SDS011;47463;49.884;10.010;2024-01-11T20:15:00;53.5;;;19.4;;
61570;SDS011;47463;49.884;10.010;2024-01-11T20:20:00;95.1;;;25;;
61570;SDS011;47463;49.884;10.010;2024-01-11T20:25:00;57.5;;;21;;
61570;SDS011;47463;49.884;10.010;2024-01-11T20:30:00;52;;;18.5;;
61570;SDS011;47463;49.884;10.010;2024-01-11T20:35:00;57;;;20.1;;
61570;SDS011;47463;49.884;10.010;2024-01-11T20:40:00;62.9;;;24.4;;
61570;SDS011;47463;49.884;10.010;2024-01-11T20:45:00;62.9;;;24.4;;
61570;SDS011;47463;49.884;10.010;2024-01-11T20:50:00;59.3;;;20.7;;
61570;SDS011;47463;49.884;10.010;2024-01-11T20:55:00;73;;;23.9;;
61570;SDS011;47463;49.884;10.010;2024-01-11T21:00:00;62.7;;;23;;
61570;SDS011;47463;49.884;10.010;2024-01-11T21:05:00;67.3;;;23.3;;
61570;SDS011;47463;49.884;10.010;2024-01-11T21:10:00;44.6;;;15.6;;
61570;SDS011;47463;49.884;10.010;2024-01-11T21:15:00;44.6;;;15.6;;
61570;SDS011;47463;49.884;10.010;2024-01-11T21:20:00;38.6;;;14.2;;
61570;SDS011;47463;49.884;10.010;2024-01-11T21:25:00;42.5;;;14.7;;
61570;SDS011;47463;49.884;10.010;2024-01-11T21:30:00;47.1;;;16.1;;
61570;SDS011;47463;49.884;10.010;2024-01-11T21:35:00;47.4;;;15.5;;
61570;SDS011;47463;49.884;10.010;2024-01-11T21:40:00;40.5;;;15.6;;
61570;SDS011;47463;49.884;10.010;2024-01-11T21:45:00;40.5;;;15.6;;
61570;SDS011;47463;49.884;10.010;2024-01-11T21:50:00;45.1;;;15.9;;
61570;SDS011;47463;49.884;10.010;2024-01-11T21:55:00;38.3;;;14.7;;
61570;SDS011;47463;49.884;10.010;2024-01-11T22:00:00;40.9;;;15;;
61570;SDS011;47463;49.884;10.010;2024-01-11T22:05:00;34.8;;;13.3;;
61570;SDS011;47463;49.884;10.010;2024-01-11T22:10:00;33.7;;;13.5;;
61570;SDS011;47463;49.884;10.010;2024-01-11T22:15:00;33.7;;;13.5;;
61570;SDS011;47463;49.884;10.010;2024-01-11T22:20:00;33.1;;;12.2;;
61570;SDS011;47463;49.884;10.010;2024-01-11T22:25:00;36.6;;;13.6;;
61570;SDS011;47463;49.884;10.010;2024-01-11T22:30:00;35.2;;;12.9;;
61570;SDS011;47463;49.884;10.010;2024-01-11T22:35:00;37.2;;;14.1;;
61570;SDS011;47463;49.884;10.010;2024-01-11T22:40:00;30.9;;;13.2;;
61570;SDS011;47463;49.884;10.010;2024-01-11T22:45:00;30.9;;;13.2;;
61570;SDS011;47463;49.884;10.010;2024-01-11T22:50:00;27.5;;;12.3;;
61570;SDS011;47463;49.884;10.010;2024-01-11T22:55:00;35.1;;;11.9;;
61570;SDS011;47463;49.884;10.010;2024-01-11T23:00:00;35.3;;;13.4;;
61570;SDS011;47463;49.884;10.010;2024-01-11T23:05:00;29.4;;;11.2;;
61570;SDS011;47463;49.884;10.010;2024-01-11T23:10:00;27.5;;;10.6;;
61570;SDS011;47463;49.884;10.010;2024-01-11T23:15:00;27.5;;;10.6;;
61570;SDS011;47463;49.884;10.010;2024-01-11T23:20:00;23.9;;;9.8;;
61570;SDS011;47463;49.884;10.010;2024-01-11T23:25:00;27.4;;;11.4;;
61570;SDS011;47463;49.884;10.010;2024-01-11T23:30:00;24.4;;;9.6;;
61570;SDS011;47463;49.884;10.010;2024-01-11T23:35:00;23.2;;;9.4;;
61570;SDS011;47463;49.884;10.010;2024-01-11T23:40:00;21.8;;;9.5;;
61570;SDS011;47463;49.884;10.010;2024-01-11T23:45:00;21.8;;;9.5;;
61570;SDS011;47463;49.884;10.010;2024-01-11T23:50:00;23.1;;;9.3;;
61570;SDS011;47463;49.884;10.010;2024-01-11T23:55:00;22.3;;;8.8;;
